Terminal Aerodrome Forecast
Issued by NWS

Home | Current Version | Previous Version | Text Only | Print | Product List | Glossary On
Versions: 1 2 3 4 5 6 7 8 9 10 11 12 13 14 15
445
FTUS42 KGSP 241129
TAFAND
TAF
KAND 241129Z 2412/2512 00000KT P6SM FEW250
      TEMPO 2412/2413 6SM BR
     FM241700 24006KT P6SM SCT250 PROB30 2421/2423 4SM -TSRA
      BKN060CB
     FM250200 VRB02KT P6SM SCT070=

USA.gov is the U.S. government's official web portal to all federal, state and local government web resources and services.